createdAt,value
2023-01-11T00:02:10.864Z,4.58
2023-01-11T00:05:12.036Z,5.12
2023-01-11T00:07:41.164Z,5.52
2023-01-11T00:10:09.042Z,5.50
2023-01-11T00:12:36.638Z,5.25
2023-01-11T00:15:13.571Z,4.92
2023-01-11T00:17:44.146Z,4.62
2023-01-11T00:20:17.899Z,5.02
2023-01-11T00:22:52.636Z,5.60
2023-01-11T00:25:22.079Z,5.62
2023-01-11T00:27:49.711Z,5.44
2023-01-11T00:30:23.323Z,5.17
2023-01-11T00:33:00.394Z,4.92
2023-01-11T00:35:28.059Z,4.67
2023-01-11T00:37:59.897Z,5.15
2023-01-11T00:40:33.265Z,5.79
2023-01-11T00:43:22.584Z,5.83
2023-01-11T00:46:10.798Z,5.57
2023-01-11T00:48:38.506Z,5.25
2023-01-11T00:51:08.923Z,4.97
2023-01-11T00:53:38.709Z,4.73
2023-01-11T00:56:11.224Z,5.19
2023-01-11T00:58:38.554Z,5.77
2023-01-11T01:01:15.340Z,5.82
2023-01-11T01:03:49.054Z,5.61
2023-01-11T01:06:23.159Z,5.33
2023-01-11T01:08:55.819Z,5.08
2023-01-11T01:11:28.123Z,4.83
2023-01-11T01:14:14.697Z,5.31
2023-01-11T01:16:53.043Z,5.93
2023-01-11T01:19:21.458Z,5.90
2023-01-11T01:21:55.896Z,5.65
2023-01-11T01:24:28.193Z,5.38
2023-01-11T01:26:59.726Z,5.11
2023-01-11T01:29:41.204Z,4.84
2023-01-11T01:32:10.711Z,5.31
2023-01-11T01:34:38.096Z,5.87
2023-01-11T01:37:06.140Z,5.91
2023-01-11T01:39:33.604Z,5.71
2023-01-11T01:42:01.331Z,5.47
2023-01-11T01:44:53.960Z,5.25
2023-01-11T01:47:34.476Z,4.99
2023-01-11T01:50:06.988Z,4.72
2023-01-11T01:52:34.194Z,5.26
2023-01-11T01:55:05.473Z,5.85
2023-01-11T01:57:40.087Z,5.89
2023-01-11T02:00:11.159Z,5.66
2023-01-11T02:02:39.112Z,5.40
2023-01-11T02:05:10.358Z,5.13
2023-01-11T02:07:44.552Z,4.91
2023-01-11T02:10:30.856Z,4.68
2023-01-11T02:13:14.419Z,5.29
2023-01-11T02:16:07.668Z,5.89
2023-01-11T02:18:40.426Z,5.87
2023-01-11T02:21:34.540Z,5.61
2023-01-11T02:24:10.391Z,5.30
2023-01-11T02:27:02.200Z,5.05
2023-01-11T02:30:13.818Z,4.77
2023-01-11T02:33:14.216Z,5.57
2023-01-11T02:36:07.710Z,6.04
2023-01-11T02:38:43.823Z,5.90
2023-01-11T02:41:54.532Z,5.62
2023-01-11T02:44:46.694Z,5.28
2023-01-11T02:47:23.017Z,4.99
2023-01-11T02:50:03.608Z,4.78
2023-01-11T02:52:49.263Z,5.40
2023-01-11T02:55:32.214Z,5.93
2023-01-11T02:58:01.556Z,5.93
2023-01-11T03:00:41.634Z,5.68
2023-01-11T03:03:15.222Z,5.41
2023-01-11T03:05:56.754Z,5.13
2023-01-11T03:08:46.704Z,4.83
2023-01-11T03:11:35.974Z,5.34
2023-01-11T03:14:32.813Z,5.83
2023-01-11T03:17:17.409Z,5.66
2023-01-11T03:19:51.495Z,5.33
2023-01-11T03:22:29.218Z,5.01
2023-01-11T03:25:21.617Z,4.74
2023-01-11T03:28:06.381Z,4.54
2023-01-11T03:30:38.048Z,5.32
2023-01-11T03:33:30.644Z,5.92
2023-01-11T03:36:08.744Z,5.91
2023-01-11T03:38:56.864Z,5.64
2023-01-11T03:41:29.631Z,5.34
2023-01-11T03:43:57.217Z,5.10
2023-01-11T03:46:27.574Z,4.89
2023-01-11T03:49:04.150Z,5.30
2023-01-11T03:51:33.794Z,5.85
2023-01-11T03:54:04.036Z,5.88
2023-01-11T03:57:13.142Z,5.66
2023-01-11T03:59:44.385Z,5.31
2023-01-11T04:02:21.964Z,5.06
2023-01-11T04:04:55.268Z,4.80
2023-01-11T04:07:25.866Z,4.59
2023-01-11T04:09:53.980Z,5.09
2023-01-11T04:12:21.400Z,5.64
2023-01-11T04:14:48.687Z,5.63
2023-01-11T04:17:22.673Z,5.36
2023-01-11T04:19:53.332Z,5.09
2023-01-11T04:22:21.508Z,4.76
2023-01-11T04:24:53.545Z,4.54
2023-01-11T04:27:24.102Z,5.06
2023-01-11T04:29:54.205Z,5.70
2023-01-11T04:32:28.247Z,5.81
2023-01-11T04:34:58.400Z,5.65
2023-01-11T04:37:28.775Z,5.38
2023-01-11T04:39:58.881Z,5.10
2023-01-11T04:42:31.880Z,4.84
2023-01-11T04:44:59.450Z,5.25
2023-01-11T04:47:34.992Z,5.78
2023-01-11T04:50:23.317Z,5.85
2023-01-11T04:53:02.941Z,5.63
2023-01-11T04:55:30.425Z,5.37
2023-01-11T04:57:58.125Z,5.13
2023-01-11T05:00:31.755Z,4.92
2023-01-11T05:03:04.273Z,5.46
2023-01-11T05:06:57.203Z,6.10
2023-01-11T05:09:32.922Z,6.04
2023-01-11T05:12:12.867Z,5.79
2023-01-11T05:14:40.449Z,5.53
2023-01-11T05:17:07.940Z,5.27
2023-01-11T05:19:38.341Z,5.63
2023-01-11T05:22:05.665Z,6.20
2023-01-11T05:24:39.048Z,6.27
2023-01-11T05:27:31.992Z,6.06
2023-01-11T05:30:01.758Z,5.75
2023-01-11T05:33:45.081Z,5.46
2023-01-11T05:37:16.236Z,5.25
2023-01-11T05:40:29.517Z,6.38
2023-01-11T05:42:57.286Z,6.56
2023-01-11T05:45:33.766Z,6.31
2023-01-11T05:48:24.443Z,5.86
2023-01-11T05:50:55.586Z,5.43
2023-01-11T05:53:24.051Z,5.01
2023-01-11T05:56:00.321Z,5.34
2023-01-11T05:58:30.252Z,5.91
2023-01-11T06:01:25.315Z,5.90
2023-01-11T06:04:11.336Z,5.49
2023-01-11T06:07:06.383Z,5.15
2023-01-11T06:09:48.448Z,4.82
2023-01-11T06:12:18.821Z,5.48
2023-01-11T06:14:58.006Z,5.93
2023-01-11T06:18:14.438Z,5.69
2023-01-11T06:20:59.435Z,5.29
2023-01-11T06:23:39.327Z,4.90
2023-01-11T06:26:16.727Z,4.61
2023-01-11T06:28:49.967Z,5.09
2023-01-11T06:31:18.276Z,5.52
2023-01-11T06:33:46.246Z,5.43
2023-01-11T06:36:22.338Z,5.17
2023-01-11T06:38:49.328Z,4.83
2023-01-11T06:41:16.416Z,4.57
2023-01-11T06:43:46.937Z,4.90
2023-01-11T06:46:18.885Z,5.30
2023-01-11T06:48:48.012Z,5.36
2023-01-11T06:51:15.503Z,4.98
2023-01-11T06:53:43.055Z,4.70
2023-01-11T06:56:18.750Z,4.45
2023-01-11T06:58:47.136Z,4.88
2023-01-11T07:01:30.939Z,5.24
2023-01-11T07:04:01.430Z,5.18
2023-01-11T07:06:32.230Z,4.90
2023-01-11T07:09:25.421Z,4.64
2023-01-11T07:11:55.356Z,4.30
2023-01-11T07:14:25.220Z,4.02
2023-01-11T07:16:57.349Z,4.55
2023-01-11T07:19:32.124Z,5.09
2023-01-11T07:21:59.408Z,5.00
2023-01-11T07:24:26.737Z,4.71
2023-01-11T07:27:01.943Z,4.45
2023-01-11T07:29:31.914Z,4.14
2023-01-11T07:31:59.677Z,4.60
2023-01-11T07:34:26.986Z,5.09
2023-01-11T07:37:01.129Z,5.08
2023-01-11T07:39:42.975Z,4.75
2023-01-11T07:42:29.758Z,4.36
2023-01-11T07:44:57.147Z,4.12
2023-01-11T07:47:24.693Z,4.67
2023-01-11T07:49:51.810Z,5.06
2023-01-11T07:52:19.301Z,5.10
2023-01-11T07:54:46.438Z,4.77
2023-01-11T07:57:32.418Z,4.40
2023-01-11T07:59:59.757Z,4.01
2023-01-11T08:02:26.991Z,4.53
2023-01-11T08:04:54.102Z,4.97
2023-01-11T08:07:21.613Z,4.84
2023-01-11T08:09:48.976Z,4.58
2023-01-11T08:12:35.473Z,4.14
2023-01-11T08:15:02.792Z,3.85
2023-01-11T08:17:30.033Z,4.30
2023-01-11T08:19:57.435Z,4.67
2023-01-11T08:22:24.494Z,4.61
2023-01-11T08:24:53.250Z,4.50
2023-01-11T08:27:20.416Z,4.33
2023-01-11T08:29:47.351Z,3.99
2023-01-11T08:32:14.304Z,4.41
2023-01-11T08:34:41.361Z,4.79
2023-01-11T08:37:09.011Z,4.79
2023-01-11T08:39:35.995Z,4.52
2023-01-11T08:42:03.552Z,4.34
2023-01-11T08:44:34.664Z,3.99
2023-01-11T08:47:03.250Z,4.34
2023-01-11T08:49:34.095Z,4.71
2023-01-11T08:52:01.021Z,4.76
2023-01-11T08:54:29.944Z,4.38
2023-01-11T08:56:57.274Z,4.15
2023-01-11T08:59:24.325Z,3.86
2023-01-11T09:01:51.473Z,4.18
2023-01-11T09:04:25.252Z,4.70
2023-01-11T09:06:53.450Z,4.80
2023-01-11T09:09:22.096Z,4.59
2023-01-11T09:12:04.724Z,4.32
2023-01-11T09:14:32.622Z,4.13
2023-01-11T09:16:59.739Z,4.64
2023-01-11T09:19:27.043Z,5.16
2023-01-11T09:21:57.246Z,5.04
2023-01-11T09:24:24.096Z,4.77
2023-01-11T09:26:51.208Z,4.39
2023-01-11T09:29:19.244Z,3.80
2023-01-11T09:31:46.338Z,4.32
2023-01-11T09:34:13.924Z,4.83
2023-01-11T09:36:40.961Z,4.80
2023-01-11T09:39:08.699Z,4.44
2023-01-11T09:42:06.181Z,4.14
2023-01-11T09:44:35.511Z,3.82
2023-01-11T09:47:44.918Z,4.46
2023-01-11T09:50:26.960Z,4.73
2023-01-11T09:53:08.210Z,4.61
2023-01-11T09:55:41.442Z,4.20
2023-01-11T09:58:16.053Z,3.87
2023-01-11T10:01:07.083Z,4.28
2023-01-11T15:32:47.476Z,2.72
2023-01-11T15:35:32.540Z,3.63
2023-01-11T15:38:20.017Z,3.49
2023-01-11T15:40:47.909Z,3.11
2023-01-11T15:43:37.969Z,3.39
2023-01-11T15:46:45.360Z,3.53
2023-01-11T15:50:25.222Z,3.46
2023-01-11T15:54:27.988Z,2.96
2023-01-11T15:58:00.304Z,2.81
2023-01-11T16:00:56.393Z,3.62
2023-01-11T16:03:31.859Z,3.73
2023-01-11T16:06:10.755Z,3.57
2023-01-11T16:09:08.070Z,3.12
2023-01-11T16:12:19.241Z,2.64
2023-01-11T16:15:07.785Z,3.31
2023-01-11T16:17:41.004Z,3.49
2023-01-11T16:20:26.481Z,3.25
2023-01-11T16:23:01.916Z,3.15
2023-01-11T16:25:33.928Z,2.76
2023-01-11T16:28:04.466Z,3.12
2023-01-11T16:30:31.861Z,3.42
2023-01-11T16:33:37.335Z,3.40
2023-01-11T16:36:11.303Z,2.97
2023-01-11T16:38:55.867Z,2.73
2023-01-11T16:41:26.065Z,2.64
2023-01-11T16:44:05.668Z,3.23
2023-01-11T16:47:04.564Z,3.32
2023-01-11T16:49:33.822Z,3.50
2023-01-11T16:52:01.395Z,3.32
2023-01-11T16:54:43.676Z,2.92
2023-01-11T16:57:10.999Z,2.61
2023-01-11T17:00:39.606Z,3.14
2023-01-11T17:03:23.962Z,3.45
2023-01-11T17:06:00.669Z,3.21
2023-01-11T17:08:53.048Z,3.00
2023-01-11T17:11:24.647Z,2.67
2023-01-11T17:14:18.127Z,2.39
2023-01-11T17:16:47.197Z,2.97
2023-01-11T17:19:23.890Z,3.39
2023-01-11T17:21:53.518Z,3.34
2023-01-11T17:24:24.970Z,2.68
2023-01-11T17:27:02.582Z,2.59
2023-01-11T17:29:42.958Z,2.34
2023-01-11T17:32:15.346Z,2.70
2023-01-11T17:34:42.329Z,3.09
2023-01-11T17:37:13.648Z,3.17
2023-01-11T17:39:44.813Z,2.87
2023-01-11T17:42:32.825Z,2.47
2023-01-11T17:45:13.669Z,2.19
2023-01-11T17:47:50.685Z,3.02
2023-01-11T17:50:25.203Z,3.32
2023-01-11T17:52:55.177Z,3.04
2023-01-11T17:55:25.953Z,2.70
2023-01-11T17:58:27.245Z,2.34
2023-01-11T18:01:18.195Z,2.24
2023-01-11T18:03:52.021Z,3.15
2023-01-11T18:06:42.513Z,3.68
2023-01-11T18:09:26.673Z,3.67
2023-01-11T18:11:54.370Z,3.31
2023-01-11T18:14:26.983Z,3.11
2023-01-11T18:17:00.796Z,2.91
2023-01-11T18:19:33.086Z,3.35
2023-01-11T18:22:03.432Z,3.87
2023-01-11T18:24:33.414Z,3.75
2023-01-11T18:27:14.238Z,3.48
2023-01-11T18:29:44.716Z,3.11
2023-01-11T18:32:15.243Z,2.76
2023-01-11T18:34:44.138Z,3.10
2023-01-11T18:37:11.585Z,3.53
2023-01-11T18:39:40.175Z,3.54
2023-01-11T18:42:08.806Z,3.12
2023-01-11T18:44:39.783Z,2.62
2023-01-11T18:47:20.757Z,2.36
2023-01-11T18:49:52.418Z,2.92
2023-01-11T18:52:20.804Z,3.46
2023-01-11T18:54:52.348Z,3.32
2023-01-11T18:57:20.009Z,3.08
2023-01-11T18:59:56.719Z,2.67
2023-01-11T19:05:22.115Z,2.87
2023-01-11T19:07:49.575Z,3.25
2023-01-11T19:10:18.755Z,3.14
2023-01-11T19:12:46.427Z,2.99
2023-01-11T19:15:16.315Z,2.75
2023-01-11T19:17:44.472Z,2.42
2023-01-11T19:20:15.364Z,3.07
2023-01-11T19:22:45.574Z,3.72
2023-01-11T19:25:16.923Z,3.36
2023-01-11T19:27:50.298Z,3.26
2023-01-11T19:30:17.979Z,2.95
2023-01-11T19:32:52.674Z,2.59
2023-01-11T19:35:20.415Z,2.89
2023-01-11T19:37:47.672Z,3.30
2023-01-11T19:40:15.043Z,3.27
2023-01-11T19:42:42.344Z,3.02
2023-01-11T19:45:12.160Z,2.82
2023-01-11T19:47:40.076Z,2.51
2023-01-11T19:50:11.820Z,2.91
2023-01-11T19:52:39.513Z,3.42
2023-01-11T19:55:10.865Z,3.46
2023-01-11T19:57:38.587Z,3.28
2023-01-11T20:00:06.989Z,2.99
2023-01-11T20:02:43.596Z,2.71
2023-01-11T20:05:10.886Z,2.95
2023-01-11T20:07:40.463Z,3.29
2023-01-11T20:10:08.422Z,3.19
2023-01-11T20:12:39.361Z,2.93
2023-01-11T20:15:07.531Z,2.52
2023-01-11T20:17:38.477Z,2.26
2023-01-11T20:20:09.422Z,2.79
2023-01-11T20:22:36.948Z,3.27
2023-01-11T20:25:04.537Z,3.21
2023-01-11T20:27:34.123Z,2.92
2023-01-11T20:30:04.439Z,2.70
2023-01-11T20:32:42.005Z,2.47
2023-01-11T20:35:10.529Z,3.03
2023-01-11T20:37:37.914Z,3.61
2023-01-11T20:40:08.109Z,3.72
2023-01-11T20:42:38.312Z,3.50
2023-01-11T20:45:06.518Z,3.24
2023-01-11T20:47:58.649Z,2.88
2023-01-11T20:50:38.798Z,2.57
2023-01-11T20:53:15.975Z,3.16
2023-01-11T20:55:48.717Z,3.46
2023-01-11T20:58:16.205Z,3.47
2023-01-11T21:00:46.009Z,3.18
2023-01-11T21:03:20.159Z,2.96
2023-01-11T21:05:53.890Z,2.71
2023-01-11T21:08:21.524Z,2.30
2023-01-11T21:10:48.883Z,2.55
2023-01-11T21:13:17.181Z,3.23
2023-01-11T21:15:45.066Z,3.25
2023-01-11T21:18:16.047Z,2.90
2023-01-11T21:20:49.219Z,2.60
2023-01-11T21:23:16.810Z,2.22
2023-01-11T21:25:47.108Z,2.67
2023-01-11T21:28:14.807Z,3.15
2023-01-11T21:30:42.238Z,3.00
2023-01-11T21:33:10.070Z,2.78
2023-01-11T21:35:39.938Z,2.55
2023-01-11T21:38:07.477Z,2.44
2023-01-11T21:40:35.138Z,2.95
2023-01-11T21:43:03.148Z,3.40
2023-01-11T21:46:24.203Z,3.62
2023-01-11T21:50:32.363Z,3.26
2023-01-11T21:54:19.643Z,2.46
2023-01-11T21:57:11.530Z,2.24
2023-01-11T21:59:48.857Z,3.17
2023-01-11T22:02:16.050Z,3.58
2023-01-11T22:05:05.246Z,3.40
